sensor_id;sensor_type;location;lat;lon;timestamp;temperature;humidity
9820;DHT22;4949;48.482;9.206;2023-03-14T00:01:44;11.50;77.20
9820;DHT22;4949;48.482;9.206;2023-03-14T00:06:45;11.50;78.20
9820;DHT22;4949;48.482;9.206;2023-03-14T00:11:47;11.20;78.50
9820;DHT22;4949;48.482;9.206;2023-03-14T00:16:50;11.20;78.80
9820;DHT22;4949;48.482;9.206;2023-03-14T00:21:53;11.00;78.10
9820;DHT22;4949;48.482;9.206;2023-03-14T00:26:54;10.90;77.70
9820;DHT22;4949;48.482;9.206;2023-03-14T00:31:55;10.90;76.40
9820;DHT22;4949;48.482;9.206;2023-03-14T00:36:55;11.00;76.20
9820;DHT22;4949;48.482;9.206;2023-03-14T00:41:56;10.90;75.50
9820;DHT22;4949;48.482;9.206;2023-03-14T00:46:57;10.90;76.30
9820;DHT22;4949;48.482;9.206;2023-03-14T00:51:58;10.90;75.90
9820;DHT22;4949;48.482;9.206;2023-03-14T00:56:59;10.80;75.00
9820;DHT22;4949;48.482;9.206;2023-03-14T01:01:59;10.80;74.40
9820;DHT22;4949;48.482;9.206;2023-03-14T01:07:00;11.00;74.70
9820;DHT22;4949;48.482;9.206;2023-03-14T01:12:01;10.90;75.50
9820;DHT22;4949;48.482;9.206;2023-03-14T01:17:01;10.90;75.10
9820;DHT22;4949;48.482;9.206;2023-03-14T01:22:08;10.80;75.50
9820;DHT22;4949;48.482;9.206;2023-03-14T01:27:08;11.00;75.30
9820;DHT22;4949;48.482;9.206;2023-03-14T01:32:09;11.10;74.30
9820;DHT22;4949;48.482;9.206;2023-03-14T01:37:10;11.10;73.50
9820;DHT22;4949;48.482;9.206;2023-03-14T01:42:14;11.20;73.90
9820;DHT22;4949;48.482;9.206;2023-03-14T01:47:18;11.20;73.90
9820;DHT22;4949;48.482;9.206;2023-03-14T01:52:27;11.30;72.80
9820;DHT22;4949;48.482;9.206;2023-03-14T01:57:44;11.30;72.00
9820;DHT22;4949;48.482;9.206;2023-03-14T02:02:53;11.50;72.60
9820;DHT22;4949;48.482;9.206;2023-03-14T02:08:01;11.20;71.50
9820;DHT22;4949;48.482;9.206;2023-03-14T02:13:06;11.30;71.80
9820;DHT22;4949;48.482;9.206;2023-03-14T02:18:10;11.30;70.30
9820;DHT22;4949;48.482;9.206;2023-03-14T02:23:35;11.30;70.20
9820;DHT22;4949;48.482;9.206;2023-03-14T02:28:53;11.40;69.80
9820;DHT22;4949;48.482;9.206;2023-03-14T02:34:01;11.40;69.70
9820;DHT22;4949;48.482;9.206;2023-03-14T02:39:19;11.40;69.40
9820;DHT22;4949;48.482;9.206;2023-03-14T02:44:28;11.50;71.00
9820;DHT22;4949;48.482;9.206;2023-03-14T02:49:33;11.30;70.60
9820;DHT22;4949;48.482;9.206;2023-03-14T02:54:34;11.30;70.70
9820;DHT22;4949;48.482;9.206;2023-03-14T02:59:37;11.10;70.60
9820;DHT22;4949;48.482;9.206;2023-03-14T03:04:38;11.20;69.70
9820;DHT22;4949;48.482;9.206;2023-03-14T03:09:41;11.10;70.70
9820;DHT22;4949;48.482;9.206;2023-03-14T03:14:45;11.00;70.20
9820;DHT22;4949;48.482;9.206;2023-03-14T03:19:48;11.10;69.20
9820;DHT22;4949;48.482;9.206;2023-03-14T03:24:51;11.00;69.40
9820;DHT22;4949;48.482;9.206;2023-03-14T03:29:54;11.00;69.30
9820;DHT22;4949;48.482;9.206;2023-03-14T03:34:57;10.90;69.20
9820;DHT22;4949;48.482;9.206;2023-03-14T03:39:58;11.00;69.10
9820;DHT22;4949;48.482;9.206;2023-03-14T03:45:00;10.90;68.70
9820;DHT22;4949;48.482;9.206;2023-03-14T03:50:03;10.80;68.60
9820;DHT22;4949;48.482;9.206;2023-03-14T03:55:04;10.70;69.10
9820;DHT22;4949;48.482;9.206;2023-03-14T04:00:06;10.80;68.30
9820;DHT22;4949;48.482;9.206;2023-03-14T04:05:09;10.70;68.90
9820;DHT22;4949;48.482;9.206;2023-03-14T04:10:10;10.90;68.50
9820;DHT22;4949;48.482;9.206;2023-03-14T04:15:11;10.70;67.90
9820;DHT22;4949;48.482;9.206;2023-03-14T04:20:12;10.60;68.00
9820;DHT22;4949;48.482;9.206;2023-03-14T04:25:15;10.60;66.70
9820;DHT22;4949;48.482;9.206;2023-03-14T04:30:17;10.60;65.80
9820;DHT22;4949;48.482;9.206;2023-03-14T04:35:18;10.70;64.30
9820;DHT22;4949;48.482;9.206;2023-03-14T04:40:19;10.70;63.80
9820;DHT22;4949;48.482;9.206;2023-03-14T04:45:24;10.70;62.80
9820;DHT22;4949;48.482;9.206;2023-03-14T04:50:30;10.70;62.40
9820;DHT22;4949;48.482;9.206;2023-03-14T04:55:31;10.80;62.20
9820;DHT22;4949;48.482;9.206;2023-03-14T05:00:35;10.80;61.70
9820;DHT22;4949;48.482;9.206;2023-03-14T05:05:35;10.80;61.60
9820;DHT22;4949;48.482;9.206;2023-03-14T05:10:36;10.70;62.00
9820;DHT22;4949;48.482;9.206;2023-03-14T05:15:37;10.70;61.80
9820;DHT22;4949;48.482;9.206;2023-03-14T05:20:38;10.70;61.90
9820;DHT22;4949;48.482;9.206;2023-03-14T05:25:39;10.70;62.20
9820;DHT22;4949;48.482;9.206;2023-03-14T05:30:40;10.70;62.20
9820;DHT22;4949;48.482;9.206;2023-03-14T05:35:42;10.70;62.30
9820;DHT22;4949;48.482;9.206;2023-03-14T05:40:44;10.70;62.00
9820;DHT22;4949;48.482;9.206;2023-03-14T05:45:46;10.70;61.80
9820;DHT22;4949;48.482;9.206;2023-03-14T05:50:47;10.80;61.40
9820;DHT22;4949;48.482;9.206;2023-03-14T05:55:55;10.70;61.80
9820;DHT22;4949;48.482;9.206;2023-03-14T06:00:56;10.80;61.20
9820;DHT22;4949;48.482;9.206;2023-03-14T06:05:57;10.80;61.10
9820;DHT22;4949;48.482;9.206;2023-03-14T06:10:58;10.80;61.00
9820;DHT22;4949;48.482;9.206;2023-03-14T06:16:02;10.80;61.80
9820;DHT22;4949;48.482;9.206;2023-03-14T06:21:03;10.70;61.80
9820;DHT22;4949;48.482;9.206;2023-03-14T06:26:06;10.80;61.40
9820;DHT22;4949;48.482;9.206;2023-03-14T06:31:07;10.70;61.90
9820;DHT22;4949;48.482;9.206;2023-03-14T06:36:12;10.80;61.90
9820;DHT22;4949;48.482;9.206;2023-03-14T06:41:13;10.80;61.90
9820;DHT22;4949;48.482;9.206;2023-03-14T06:46:16;10.90;61.20
9820;DHT22;4949;48.482;9.206;2023-03-14T06:51:16;10.90;61.80
9820;DHT22;4949;48.482;9.206;2023-03-14T06:56:20;10.90;60.80
9820;DHT22;4949;48.482;9.206;2023-03-14T07:01:26;10.90;60.70
9820;DHT22;4949;48.482;9.206;2023-03-14T07:06:27;10.90;61.00
9820;DHT22;4949;48.482;9.206;2023-03-14T07:11:29;11.00;60.50
9820;DHT22;4949;48.482;9.206;2023-03-14T07:16:32;11.00;61.10
9820;DHT22;4949;48.482;9.206;2023-03-14T07:21:36;11.40;60.30
9820;DHT22;4949;48.482;9.206;2023-03-14T07:26:37;11.10;60.50
9820;DHT22;4949;48.482;9.206;2023-03-14T07:31:40;11.10;60.30
9820;DHT22;4949;48.482;9.206;2023-03-14T07:36:43;11.20;60.50
9820;DHT22;4949;48.482;9.206;2023-03-14T07:41:44;11.20;59.70
9820;DHT22;4949;48.482;9.206;2023-03-14T07:46:44;11.40;59.50
9820;DHT22;4949;48.482;9.206;2023-03-14T07:51:50;11.40;59.80
9820;DHT22;4949;48.482;9.206;2023-03-14T07:56:54;11.40;60.00
9820;DHT22;4949;48.482;9.206;2023-03-14T08:01:55;11.50;59.00
9820;DHT22;4949;48.482;9.206;2023-03-14T08:06:55;11.80;59.80
9820;DHT22;4949;48.482;9.206;2023-03-14T08:11:57;11.70;58.70
9820;DHT22;4949;48.482;9.206;2023-03-14T08:16:57;11.80;57.80
9820;DHT22;4949;48.482;9.206;2023-03-14T08:21:58;11.80;57.90
9820;DHT22;4949;48.482;9.206;2023-03-14T08:27:01;11.90;58.30
9820;DHT22;4949;48.482;9.206;2023-03-14T08:32:02;12.00;57.40
9820;DHT22;4949;48.482;9.206;2023-03-14T08:37:03;12.00;58.10
9820;DHT22;4949;48.482;9.206;2023-03-14T08:42:04;12.00;58.00
9820;DHT22;4949;48.482;9.206;2023-03-14T08:47:07;12.10;57.40
9820;DHT22;4949;48.482;9.206;2023-03-14T08:52:10;12.10;57.50
9820;DHT22;4949;48.482;9.206;2023-03-14T08:57:10;12.40;57.40
9820;DHT22;4949;48.482;9.206;2023-03-14T09:02:12;12.40;57.20
9820;DHT22;4949;48.482;9.206;2023-03-14T09:07:12;12.50;57.30
9820;DHT22;4949;48.482;9.206;2023-03-14T09:12:16;12.70;56.70
9820;DHT22;4949;48.482;9.206;2023-03-14T09:17:17;12.80;57.00
9820;DHT22;4949;48.482;9.206;2023-03-14T09:22:18;12.50;58.80
9820;DHT22;4949;48.482;9.206;2023-03-14T09:27:21;12.30;62.30
9820;DHT22;4949;48.482;9.206;2023-03-14T09:32:22;12.20;64.40
9820;DHT22;4949;48.482;9.206;2023-03-14T09:37:25;12.30;65.50
9820;DHT22;4949;48.482;9.206;2023-03-14T09:42:29;12.10;64.10
9820;DHT22;4949;48.482;9.206;2023-03-14T09:47:30;12.20;64.50
9820;DHT22;4949;48.482;9.206;2023-03-14T09:52:33;12.20;66.10
9820;DHT22;4949;48.482;9.206;2023-03-14T09:57:39;12.00;66.80
9820;DHT22;4949;48.482;9.206;2023-03-14T10:08:25;12.10;66.70
9820;DHT22;4949;48.482;9.206;2023-03-14T10:13:27;12.10;66.10
9820;DHT22;4949;48.482;9.206;2023-03-14T10:18:31;12.00;65.90
9820;DHT22;4949;48.482;9.206;2023-03-14T10:23:37;12.00;63.80
9820;DHT22;4949;48.482;9.206;2023-03-14T10:28:46;12.20;63.80
9820;DHT22;4949;48.482;9.206;2023-03-14T10:34:04;12.10;62.80
9820;DHT22;4949;48.482;9.206;2023-03-14T10:44:23;12.30;62.10
9820;DHT22;4949;48.482;9.206;2023-03-14T10:49:28;12.30;61.20
9820;DHT22;4949;48.482;9.206;2023-03-14T10:54:33;12.30;60.50
9820;DHT22;4949;48.482;9.206;2023-03-14T10:59:39;12.30;60.80
9820;DHT22;4949;48.482;9.206;2023-03-14T11:05:34;12.20;60.50
9820;DHT22;4949;48.482;9.206;2023-03-14T11:10:48;12.20;62.40
9820;DHT22;4949;48.482;9.206;2023-03-14T11:15:55;12.20;64.30
9820;DHT22;4949;48.482;9.206;2023-03-14T11:21:24;11.80;68.00
9820;DHT22;4949;48.482;9.206;2023-03-14T11:32:10;11.70;71.10
9820;DHT22;4949;48.482;9.206;2023-03-14T11:37:25;11.70;70.60
9820;DHT22;4949;48.482;9.206;2023-03-14T11:42:30;11.50;70.60
9820;DHT22;4949;48.482;9.206;2023-03-14T11:47:37;11.50;72.00
9820;DHT22;4949;48.482;9.206;2023-03-14T11:58:27;11.30;73.90
9820;DHT22;4949;48.482;9.206;2023-03-14T12:03:41;11.30;73.80
9820;DHT22;4949;48.482;9.206;2023-03-14T12:08:53;11.30;72.40
9820;DHT22;4949;48.482;9.206;2023-03-14T12:13:58;11.30;71.20
9820;DHT22;4949;48.482;9.206;2023-03-14T12:24:27;11.00;74.00
9820;DHT22;4949;48.482;9.206;2023-03-14T12:29:29;10.70;76.80
9820;DHT22;4949;48.482;9.206;2023-03-14T12:34:33;10.30;79.40
9820;DHT22;4949;48.482;9.206;2023-03-14T12:39:53;9.80;74.70
9820;DHT22;4949;48.482;9.206;2023-03-14T12:45:37;9.70;74.50
9820;DHT22;4949;48.482;9.206;2023-03-14T12:50:42;9.70;75.10
9820;DHT22;4949;48.482;9.206;2023-03-14T12:55:53;9.70;74.60
9820;DHT22;4949;48.482;9.206;2023-03-14T13:01:05;9.70;74.30
9820;DHT22;4949;48.482;9.206;2023-03-14T13:06:09;9.90;73.80
9820;DHT22;4949;48.482;9.206;2023-03-14T13:11:15;10.00;72.00
9820;DHT22;4949;48.482;9.206;2023-03-14T13:16:23;9.90;70.50
9820;DHT22;4949;48.482;9.206;2023-03-14T13:21:27;9.60;61.40
9820;DHT22;4949;48.482;9.206;2023-03-14T13:26:42;9.60;62.50
9820;DHT22;4949;48.482;9.206;2023-03-14T13:31:48;9.70;63.20
9820;DHT22;4949;48.482;9.206;2023-03-14T13:36:52;9.60;62.00
9820;DHT22;4949;48.482;9.206;2023-03-14T13:42:00;9.60;61.80
9820;DHT22;4949;48.482;9.206;2023-03-14T13:47:03;9.30;57.50
9820;DHT22;4949;48.482;9.206;2023-03-14T13:52:28;9.20;57.30
9820;DHT22;4949;48.482;9.206;2023-03-14T14:02:46;9.00;56.70
9820;DHT22;4949;48.482;9.206;2023-03-14T14:07:49;8.80;57.00
9820;DHT22;4949;48.482;9.206;2023-03-14T14:12:57;8.80;57.20
9820;DHT22;4949;48.482;9.206;2023-03-14T14:18:07;8.80;57.50
9820;DHT22;4949;48.482;9.206;2023-03-14T14:23:13;8.90;57.30
9820;DHT22;4949;48.482;9.206;2023-03-14T14:33:28;8.90;57.30
9820;DHT22;4949;48.482;9.206;2023-03-14T14:38:29;8.90;57.70
9820;DHT22;4949;48.482;9.206;2023-03-14T14:43:36;8.90;57.40
9820;DHT22;4949;48.482;9.206;2023-03-14T14:48:39;8.90;57.90
9820;DHT22;4949;48.482;9.206;2023-03-14T14:53:43;9.00;58.30
9820;DHT22;4949;48.482;9.206;2023-03-14T14:58:48;9.00;57.80
9820;DHT22;4949;48.482;9.206;2023-03-14T15:03:53;9.00;56.60
9820;DHT22;4949;48.482;9.206;2023-03-14T15:08:54;9.10;55.60
9820;DHT22;4949;48.482;9.206;2023-03-14T15:13:55;9.10;54.20
9820;DHT22;4949;48.482;9.206;2023-03-14T15:18:58;8.90;55.00
9820;DHT22;4949;48.482;9.206;2023-03-14T15:24:00;9.10;55.40
9820;DHT22;4949;48.482;9.206;2023-03-14T15:29:00;9.20;53.60
9820;DHT22;4949;48.482;9.206;2023-03-14T15:34:01;9.10;52.30
9820;DHT22;4949;48.482;9.206;2023-03-14T15:39:06;9.10;51.50
9820;DHT22;4949;48.482;9.206;2023-03-14T15:44:07;9.10;51.20
9820;DHT22;4949;48.482;9.206;2023-03-14T15:49:10;9.20;51.60
9820;DHT22;4949;48.482;9.206;2023-03-14T15:54:13;9.10;51.80
9820;DHT22;4949;48.482;9.206;2023-03-14T15:59:13;9.20;52.60
9820;DHT22;4949;48.482;9.206;2023-03-14T16:04:19;9.20;52.70
9820;DHT22;4949;48.482;9.206;2023-03-14T16:09:19;9.10;53.00
9820;DHT22;4949;48.482;9.206;2023-03-14T16:14:21;9.20;53.50
9820;DHT22;4949;48.482;9.206;2023-03-14T16:19:24;9.30;53.60
9820;DHT22;4949;48.482;9.206;2023-03-14T16:24:26;9.30;53.00
9820;DHT22;4949;48.482;9.206;2023-03-14T16:29:29;9.20;53.60
9820;DHT22;4949;48.482;9.206;2023-03-14T16:34:30;9.20;52.60
9820;DHT22;4949;48.482;9.206;2023-03-14T16:39:31;9.10;52.80
9820;DHT22;4949;48.482;9.206;2023-03-14T16:44:32;9.10;53.30
9820;DHT22;4949;48.482;9.206;2023-03-14T16:49:32;9.20;53.40
9820;DHT22;4949;48.482;9.206;2023-03-14T16:54:33;9.00;53.80
9820;DHT22;4949;48.482;9.206;2023-03-14T16:59:34;9.10;53.40
9820;DHT22;4949;48.482;9.206;2023-03-14T17:04:38;9.00;54.30
9820;DHT22;4949;48.482;9.206;2023-03-14T17:09:39;8.80;54.50
9820;DHT22;4949;48.482;9.206;2023-03-14T17:14:40;8.70;55.20
9820;DHT22;4949;48.482;9.206;2023-03-14T17:19:41;8.70;55.60
9820;DHT22;4949;48.482;9.206;2023-03-14T17:24:42;8.70;55.90
9820;DHT22;4949;48.482;9.206;2023-03-14T17:29:42;8.80;56.20
9820;DHT22;4949;48.482;9.206;2023-03-14T17:34:44;8.70;57.50
9820;DHT22;4949;48.482;9.206;2023-03-14T17:39:47;8.80;58.40
9820;DHT22;4949;48.482;9.206;2023-03-14T17:44:48;8.70;60.10
9820;DHT22;4949;48.482;9.206;2023-03-14T17:49:49;8.40;62.30
9820;DHT22;4949;48.482;9.206;2023-03-14T17:54:50;8.20;65.00
9820;DHT22;4949;48.482;9.206;2023-03-14T17:59:51;8.10;67.90
9820;DHT22;4949;48.482;9.206;2023-03-14T18:04:55;8.00;69.60
9820;DHT22;4949;48.482;9.206;2023-03-14T18:09:56;8.00;69.00
9820;DHT22;4949;48.482;9.206;2023-03-14T18:14:56;8.10;68.20
9820;DHT22;4949;48.482;9.206;2023-03-14T18:19:57;8.10;69.10
9820;DHT22;4949;48.482;9.206;2023-03-14T18:25:00;7.80;70.10
9820;DHT22;4949;48.482;9.206;2023-03-14T18:30:02;7.70;70.30
9820;DHT22;4949;48.482;9.206;2023-03-14T18:35:04;7.60;71.00
9820;DHT22;4949;48.482;9.206;2023-03-14T18:40:05;7.40;72.00
9820;DHT22;4949;48.482;9.206;2023-03-14T18:45:13;7.50;73.60
9820;DHT22;4949;48.482;9.206;2023-03-14T18:50:16;7.30;74.00
9820;DHT22;4949;48.482;9.206;2023-03-14T18:55:17;7.40;72.90
9820;DHT22;4949;48.482;9.206;2023-03-14T19:00:19;7.30;72.20
9820;DHT22;4949;48.482;9.206;2023-03-14T19:05:22;7.20;71.70
9820;DHT22;4949;48.482;9.206;2023-03-14T19:10:26;7.10;71.70
9820;DHT22;4949;48.482;9.206;2023-03-14T19:15:26;7.10;72.00
9820;DHT22;4949;48.482;9.206;2023-03-14T19:20:27;7.00;72.00
9820;DHT22;4949;48.482;9.206;2023-03-14T19:25:29;7.00;71.20
9820;DHT22;4949;48.482;9.206;2023-03-14T19:30:30;7.00;70.40
9820;DHT22;4949;48.482;9.206;2023-03-14T19:35:30;6.80;71.00
9820;DHT22;4949;48.482;9.206;2023-03-14T19:40:31;6.70;71.20
9820;DHT22;4949;48.482;9.206;2023-03-14T19:45:32;6.80;70.70
9820;DHT22;4949;48.482;9.206;2023-03-14T19:50:34;6.70;70.40
9820;DHT22;4949;48.482;9.206;2023-03-14T19:55:34;6.70;71.10
9820;DHT22;4949;48.482;9.206;2023-03-14T20:00:37;6.80;69.90
9820;DHT22;4949;48.482;9.206;2023-03-14T20:05:38;6.80;70.50
9820;DHT22;4949;48.482;9.206;2023-03-14T20:10:44;6.90;70.60
9820;DHT22;4949;48.482;9.206;2023-03-14T20:15:45;6.90;69.50
9820;DHT22;4949;48.482;9.206;2023-03-14T20:20:46;6.80;70.60
9820;DHT22;4949;48.482;9.206;2023-03-14T20:25:57;6.80;70.30
9820;DHT22;4949;48.482;9.206;2023-03-14T20:30:58;6.70;70.30
9820;DHT22;4949;48.482;9.206;2023-03-14T20:36:00;6.80;69.50
9820;DHT22;4949;48.482;9.206;2023-03-14T20:41:04;6.80;69.30
9820;DHT22;4949;48.482;9.206;2023-03-14T20:46:06;6.90;68.70
9820;DHT22;4949;48.482;9.206;2023-03-14T20:51:10;6.90;68.60
9820;DHT22;4949;48.482;9.206;2023-03-14T20:56:12;6.80;69.30
9820;DHT22;4949;48.482;9.206;2023-03-14T21:01:15;6.90;69.60
9820;DHT22;4949;48.482;9.206;2023-03-14T21:06:19;6.90;69.40
9820;DHT22;4949;48.482;9.206;2023-03-14T21:11:21;6.90;70.10
9820;DHT22;4949;48.482;9.206;2023-03-14T21:16:24;6.70;71.60
9820;DHT22;4949;48.482;9.206;2023-03-14T21:21:25;6.60;73.30
9820;DHT22;4949;48.482;9.206;2023-03-14T21:26:28;6.20;75.90
9820;DHT22;4949;48.482;9.206;2023-03-14T21:31:32;5.90;78.10
9820;DHT22;4949;48.482;9.206;2023-03-14T21:36:35;5.90;79.40
9820;DHT22;4949;48.482;9.206;2023-03-14T21:41:36;5.50;80.90
9820;DHT22;4949;48.482;9.206;2023-03-14T21:46:37;5.30;81.30
9820;DHT22;4949;48.482;9.206;2023-03-14T21:51:41;5.40;79.80
9820;DHT22;4949;48.482;9.206;2023-03-14T21:56:45;5.40;78.10
9820;DHT22;4949;48.482;9.206;2023-03-14T22:01:48;5.10;79.10
9820;DHT22;4949;48.482;9.206;2023-03-14T22:06:49;5.10;78.30
9820;DHT22;4949;48.482;9.206;2023-03-14T22:11:52;5.00;79.20
9820;DHT22;4949;48.482;9.206;2023-03-14T22:16:53;5.00;80.10
9820;DHT22;4949;48.482;9.206;2023-03-14T22:21:59;5.00;80.20
9820;DHT22;4949;48.482;9.206;2023-03-14T22:27:00;5.40;81.60
9820;DHT22;4949;48.482;9.206;2023-03-14T22:32:03;5.10;80.80
9820;DHT22;4949;48.482;9.206;2023-03-14T22:37:06;5.10;80.90
9820;DHT22;4949;48.482;9.206;2023-03-14T22:42:09;5.20;81.40
9820;DHT22;4949;48.482;9.206;2023-03-14T22:47:13;5.30;80.90
9820;DHT22;4949;48.482;9.206;2023-03-14T22:52:16;5.20;80.30
9820;DHT22;4949;48.482;9.206;2023-03-14T22:57:17;5.10;80.00
9820;DHT22;4949;48.482;9.206;2023-03-14T23:02:20;5.00;81.80
9820;DHT22;4949;48.482;9.206;2023-03-14T23:07:21;5.00;80.70
9820;DHT22;4949;48.482;9.206;2023-03-14T23:12:22;4.90;81.50
9820;DHT22;4949;48.482;9.206;2023-03-14T23:17:25;4.90;81.90
9820;DHT22;4949;48.482;9.206;2023-03-14T23:22:26;4.80;83.00
9820;DHT22;4949;48.482;9.206;2023-03-14T23:27:27;4.70;80.30
9820;DHT22;4949;48.482;9.206;2023-03-14T23:32:30;4.60;80.20
9820;DHT22;4949;48.482;9.206;2023-03-14T23:37:31;4.60;78.70
9820;DHT22;4949;48.482;9.206;2023-03-14T23:42:34;4.40;78.20
9820;DHT22;4949;48.482;9.206;2023-03-14T23:47:38;4.30;78.80
9820;DHT22;4949;48.482;9.206;2023-03-14T23:52:40;4.30;78.60
9820;DHT22;4949;48.482;9.206;2023-03-14T23:57:43;4.10;77.70
